createdAt,value
2017-08-02T00:01:07.933Z,80.79
2017-08-02T00:03:35.411Z,81.75
2017-08-02T00:06:02.865Z,82.76
2017-08-02T00:08:30.347Z,83.14
2017-08-02T00:10:57.783Z,82.91
2017-08-02T00:13:25.236Z,83.73
2017-08-02T00:15:52.795Z,83.63
2017-08-02T00:18:20.241Z,82.90
2017-08-02T00:20:47.701Z,83.05
2017-08-02T00:23:15.165Z,81.89
2017-08-02T00:25:42.732Z,81.59
2017-08-02T00:28:10.165Z,82.46
2017-08-02T00:30:38.927Z,82.96
2017-08-02T00:33:06.431Z,83.53
2017-08-02T00:35:33.893Z,84.17
2017-08-02T00:38:01.438Z,83.82
2017-08-02T00:40:28.906Z,83.58
2017-08-02T00:42:56.383Z,83.64
2017-08-02T00:45:23.846Z,83.75
2017-08-02T00:47:51.286Z,83.47
2017-08-02T00:50:18.738Z,83.44
2017-08-02T00:52:46.294Z,83.38
2017-08-02T00:55:13.730Z,83.40
2017-08-02T00:57:41.309Z,83.37
2017-08-02T01:00:08.774Z,83.60
2017-08-02T01:02:36.351Z,83.09
2017-08-02T01:05:03.812Z,82.94
2017-08-02T01:07:31.280Z,82.53
2017-08-02T01:09:58.730Z,82.56
2017-08-02T01:12:26.191Z,82.45
2017-08-02T01:14:53.702Z,82.30
2017-08-02T01:17:21.185Z,83.60
2017-08-02T01:19:48.733Z,83.76
2017-08-02T01:22:16.173Z,85.00
2017-08-02T01:24:43.646Z,85.58
2017-08-02T01:27:12.578Z,86.01
2017-08-02T01:29:40.083Z,86.43
2017-08-02T01:32:07.526Z,86.07
2017-08-02T01:34:35.099Z,85.85
2017-08-02T01:37:02.656Z,85.83
2017-08-02T01:39:31.132Z,85.99
2017-08-02T01:41:58.586Z,86.03
2017-08-02T01:44:26.160Z,85.77
2017-08-02T01:46:53.619Z,85.71
2017-08-02T01:49:21.065Z,85.78
2017-08-02T01:51:48.824Z,85.88
2017-08-02T01:54:16.339Z,85.69
2017-08-02T01:56:43.808Z,86.39
2017-08-02T01:59:11.250Z,85.80
2017-08-02T02:01:38.756Z,85.18
2017-08-02T02:04:06.325Z,85.83
2017-08-02T02:06:33.788Z,86.49
2017-08-02T02:09:01.230Z,86.05
2017-08-02T02:11:28.695Z,86.26
2017-08-02T02:13:56.153Z,86.24
2017-08-02T02:16:23.614Z,86.36
2017-08-02T02:18:51.156Z,86.38
2017-08-02T02:21:18.642Z,86.53
2017-08-02T02:23:46.167Z,86.07
2017-08-02T02:26:13.636Z,85.79
2017-08-02T02:28:41.173Z,86.56
2017-08-02T02:31:09.567Z,86.64
2017-08-02T02:33:37.006Z,86.61
2017-08-02T02:36:04.486Z,86.58
2017-08-02T02:38:32.031Z,86.86
2017-08-02T02:40:59.492Z,87.44
2017-08-02T02:43:27.235Z,86.99
2017-08-02T02:45:54.674Z,87.05
2017-08-02T02:48:22.165Z,87.15
2017-08-02T02:50:49.617Z,86.58
2017-08-02T02:53:17.081Z,85.59
2017-08-02T02:55:45.046Z,85.51
2017-08-02T02:58:12.610Z,86.02
2017-08-02T03:00:40.169Z,86.99
2017-08-02T03:03:07.724Z,86.78
2017-08-02T03:05:35.287Z,86.32
2017-08-02T03:08:02.773Z,86.08
2017-08-02T03:10:30.279Z,85.93
2017-08-02T03:12:57.730Z,85.83
2017-08-02T03:15:25.191Z,86.48
2017-08-02T03:17:52.658Z,86.33
2017-08-02T03:20:20.232Z,86.01
2017-08-02T03:22:47.787Z,86.07
2017-08-02T03:25:15.278Z,85.94
2017-08-02T03:27:42.802Z,86.54
2017-08-02T03:30:10.272Z,86.28
2017-08-02T03:32:37.743Z,86.00
2017-08-02T03:35:05.288Z,86.18
2017-08-02T03:37:32.738Z,86.37
2017-08-02T03:40:00.199Z,86.63
2017-08-02T03:42:27.750Z,86.77
2017-08-02T03:44:55.393Z,86.05
2017-08-02T03:47:22.894Z,86.23
2017-08-02T03:49:50.346Z,86.39
2017-08-02T03:52:17.869Z,86.24
2017-08-02T03:54:45.310Z,86.81
2017-08-02T03:57:14.704Z,86.73
2017-08-02T03:59:42.193Z,86.66
2017-08-02T04:02:09.748Z,86.46
2017-08-02T04:04:37.187Z,86.27
2017-08-02T04:07:04.661Z,86.66
2017-08-02T04:09:32.110Z,86.73
2017-08-02T04:11:59.681Z,86.56
2017-08-02T04:14:27.123Z,86.43
2017-08-02T04:16:54.606Z,86.46
2017-08-02T04:19:22.141Z,86.72
2017-08-02T04:21:50.073Z,87.10
2017-08-02T04:24:17.531Z,86.88
2017-08-02T04:26:44.975Z,86.69
2017-08-02T04:29:12.503Z,86.50
2017-08-02T04:31:39.959Z,86.11
2017-08-02T04:34:07.518Z,85.89
2017-08-02T04:36:35.060Z,86.30
2017-08-02T04:39:02.522Z,86.09
2017-08-02T04:41:29.977Z,86.87
2017-08-02T04:43:57.467Z,86.50
2017-08-02T04:46:24.910Z,86.77
2017-08-02T04:48:52.437Z,86.79
2017-08-02T04:51:19.895Z,86.81
2017-08-02T04:53:47.351Z,86.17
2017-08-02T04:56:14.930Z,86.52
2017-08-02T04:58:42.387Z,86.54
2017-08-02T05:01:09.872Z,86.51
2017-08-02T05:03:37.323Z,86.57
2017-08-02T05:06:04.797Z,86.42
2017-08-02T05:08:32.312Z,86.51
2017-08-02T05:10:59.775Z,85.63
2017-08-02T05:13:27.315Z,85.23
2017-08-02T05:15:54.871Z,84.77
2017-08-02T05:18:22.331Z,83.40
2017-08-02T05:20:49.774Z,82.64
2017-08-02T05:23:17.345Z,80.92
2017-08-02T05:25:44.782Z,79.13
2017-08-02T05:28:12.243Z,78.25
2017-08-02T05:30:39.731Z,78.21
2017-08-02T05:33:07.286Z,77.10
2017-08-02T05:35:34.841Z,75.42
2017-08-02T05:38:02.303Z,74.39
2017-08-02T05:40:29.749Z,73.51
2017-08-02T05:42:57.206Z,73.85
2017-08-02T05:45:24.678Z,73.21
2017-08-02T05:47:52.213Z,72.45
2017-08-02T05:50:19.670Z,72.05
2017-08-02T05:52:47.130Z,70.71
2017-08-02T05:55:14.599Z,70.68
2017-08-02T05:57:42.067Z,70.64
2017-08-02T06:00:09.515Z,71.24
2017-08-02T06:02:36.998Z,72.68
2017-08-02T06:05:04.437Z,72.89
2017-08-02T06:07:31.923Z,71.35
2017-08-02T06:09:59.426Z,71.24
2017-08-02T06:12:26.891Z,71.75
2017-08-02T06:14:54.362Z,69.97
2017-08-02T06:17:21.906Z,72.36
2017-08-02T06:19:49.369Z,71.36
2017-08-02T06:22:16.829Z,70.66
2017-08-02T06:24:44.298Z,73.06
2017-08-02T06:27:11.822Z,72.82
2017-08-02T06:29:39.282Z,71.19
2017-08-02T06:32:06.735Z,71.18
2017-08-02T06:34:34.395Z,70.22
2017-08-02T06:37:01.843Z,70.56
2017-08-02T06:39:29.328Z,68.95
2017-08-02T06:41:56.790Z,70.71
2017-08-02T06:44:24.247Z,70.69
2017-08-02T06:46:51.815Z,71.65
2017-08-02T06:49:19.343Z,71.08
2017-08-02T06:51:47.060Z,70.15
2017-08-02T06:54:14.563Z,70.12
2017-08-02T06:56:42.022Z,70.97
2017-08-02T06:59:09.465Z,70.20
2017-08-02T07:01:36.923Z,72.06
2017-08-02T07:04:05.003Z,70.43
2017-08-02T07:06:32.562Z,69.64
2017-08-02T07:09:00.124Z,70.91
2017-08-02T07:11:27.674Z,68.11
2017-08-02T07:13:55.115Z,68.88
2017-08-02T07:16:22.822Z,70.22
2017-08-02T07:18:50.361Z,70.58
2017-08-02T07:21:17.911Z,69.59
2017-08-02T07:23:45.349Z,69.95
2017-08-02T07:26:12.846Z,69.07
2017-08-02T07:28:40.363Z,68.42
2017-08-02T07:31:09.578Z,66.63
2017-08-02T07:33:37.040Z,69.34
2017-08-02T07:36:04.554Z,66.57
2017-08-02T07:38:32.019Z,68.97
2017-08-02T07:40:59.645Z,69.33
2017-08-02T07:43:27.182Z,69.77
2017-08-02T07:45:54.633Z,70.02
2017-08-02T07:48:22.255Z,68.89
2017-08-02T07:50:49.751Z,69.34
2017-08-02T07:53:17.549Z,68.63
2017-08-02T07:55:45.063Z,68.33
2017-08-02T07:58:12.518Z,67.75
2017-08-02T08:00:39.974Z,66.63
2017-08-02T08:03:07.427Z,64.79
2017-08-02T08:05:35.079Z,63.41
2017-08-02T08:08:02.562Z,64.50
2017-08-02T08:10:30.003Z,63.20
2017-08-02T08:12:57.585Z,64.03
2017-08-02T08:15:25.135Z,65.27
2017-08-02T08:17:52.688Z,60.07
2017-08-02T08:20:20.179Z,60.23
2017-08-02T08:22:47.637Z,59.34
2017-08-02T08:25:15.160Z,59.66
2017-08-02T08:27:42.616Z,57.96
2017-08-02T08:30:10.176Z,57.99
2017-08-02T08:32:37.618Z,57.52
2017-08-02T08:35:05.074Z,57.93
2017-08-02T08:37:32.514Z,58.12
2017-08-02T08:39:59.991Z,59.70
2017-08-02T08:42:27.431Z,58.09
2017-08-02T08:44:54.895Z,57.67
2017-08-02T08:47:22.341Z,59.02
2017-08-02T08:49:49.826Z,56.79
2017-08-02T08:52:17.275Z,55.88
2017-08-02T08:54:44.739Z,56.61
2017-08-02T08:57:12.191Z,57.53
2017-08-02T08:59:39.656Z,56.89
2017-08-02T09:02:07.098Z,56.26
2017-08-02T09:04:34.622Z,55.09
2017-08-02T09:07:02.087Z,55.76
2017-08-02T09:09:29.558Z,55.39
2017-08-02T09:11:57.043Z,53.14
2017-08-02T09:14:24.498Z,53.42
2017-08-02T09:16:51.973Z,52.88
2017-08-02T09:19:19.511Z,54.38
2017-08-02T09:21:47.063Z,55.83
2017-08-02T09:24:14.515Z,54.87
2017-08-02T09:26:41.976Z,54.00
2017-08-02T09:29:09.432Z,51.91
2017-08-02T09:31:36.995Z,52.21
2017-08-02T09:34:04.455Z,52.41
2017-08-02T09:36:31.918Z,52.28
2017-08-02T09:38:59.523Z,51.03
2017-08-02T09:41:27.038Z,52.53
2017-08-02T09:43:54.589Z,52.50
2017-08-02T09:46:22.214Z,52.79
2017-08-02T09:48:49.707Z,51.70
2017-08-02T09:51:17.151Z,52.18
2017-08-02T09:53:44.607Z,53.08
2017-08-02T09:56:12.077Z,51.57
2017-08-02T09:58:42.854Z,50.66
2017-08-02T10:01:10.339Z,48.12
2017-08-02T10:03:37.825Z,48.12
2017-08-02T10:06:05.262Z,47.93
2017-08-02T10:08:32.837Z,45.03
2017-08-02T10:11:00.373Z,44.52
2017-08-02T10:13:27.833Z,45.01
2017-08-02T10:15:55.279Z,45.21
2017-08-02T10:18:22.766Z,45.65
2017-08-02T10:20:50.206Z,46.61
2017-08-02T10:23:17.674Z,44.69
2017-08-02T10:25:45.187Z,44.51
2017-08-02T10:28:12.670Z,45.97
2017-08-02T10:30:40.218Z,43.99
2017-08-02T10:33:07.668Z,44.58
2017-08-02T10:35:35.298Z,43.35
2017-08-02T10:38:02.856Z,42.65
2017-08-02T10:40:30.385Z,46.33
2017-08-02T10:42:57.946Z,45.79
2017-08-02T10:45:25.495Z,44.25
2017-08-02T10:47:52.950Z,44.51
2017-08-02T10:50:23.510Z,44.85
2017-08-02T10:52:50.954Z,45.58
2017-08-02T10:55:18.413Z,44.03
2017-08-02T10:57:45.859Z,45.82
2017-08-02T11:00:13.419Z,44.93
2017-08-02T11:02:40.900Z,45.40
2017-08-02T11:05:08.496Z,44.43
2017-08-02T11:07:35.989Z,46.41
2017-08-02T11:10:03.548Z,43.93
2017-08-02T11:12:31.006Z,43.70
2017-08-02T11:14:58.464Z,44.28
2017-08-02T11:17:26.010Z,44.85
2017-08-02T11:19:53.478Z,44.21
2017-08-02T11:22:20.944Z,44.93
2017-08-02T11:24:48.478Z,44.23
2017-08-02T11:27:16.049Z,45.96
2017-08-02T11:29:43.501Z,44.71
2017-08-02T11:32:11.098Z,45.96
2017-08-02T11:34:38.551Z,45.85
2017-08-02T11:37:06.009Z,45.54
2017-08-02T11:39:33.532Z,45.51
2017-08-02T11:42:01.011Z,45.04
2017-08-02T11:44:28.522Z,44.95
2017-08-02T11:46:55.967Z,45.39
2017-08-02T11:49:23.457Z,45.25
2017-08-02T11:51:50.894Z,44.82
2017-08-02T11:54:18.346Z,45.65
2017-08-02T11:56:45.791Z,45.35
2017-08-02T11:59:13.292Z,45.17
2017-08-02T12:01:40.735Z,44.79
2017-08-02T12:04:08.199Z,45.94
2017-08-02T12:06:36.281Z,44.03
2017-08-02T12:09:03.773Z,42.84
2017-08-02T12:11:31.215Z,43.29
2017-08-02T12:13:58.682Z,43.21
2017-08-02T12:16:26.129Z,43.28
2017-08-02T12:18:54.813Z,44.85
2017-08-02T12:21:22.290Z,44.23
2017-08-02T12:23:49.735Z,43.89
2017-08-02T12:26:17.676Z,42.60
2017-08-02T12:28:45.182Z,40.69
2017-08-02T12:31:13.140Z,40.52
2017-08-02T12:33:40.615Z,42.49
2017-08-02T12:36:08.108Z,42.56
2017-08-02T12:38:35.575Z,42.36
2017-08-02T12:41:03.121Z,42.65
2017-08-02T12:43:30.783Z,42.95
2017-08-02T12:45:58.268Z,42.36
2017-08-02T12:48:25.797Z,42.13
2017-08-02T12:50:53.279Z,42.23
2017-08-02T12:53:20.727Z,43.80
2017-08-02T12:55:48.179Z,43.60
2017-08-02T12:58:15.713Z,43.46
2017-08-02T13:00:43.157Z,44.50
2017-08-02T13:03:10.631Z,42.75
2017-08-02T13:05:38.086Z,42.03
2017-08-02T13:08:05.653Z,42.63
2017-08-02T13:10:33.199Z,43.24
2017-08-02T13:13:00.658Z,44.71
2017-08-02T13:15:28.114Z,44.99
2017-08-02T13:17:55.678Z,44.61
2017-08-02T13:20:23.115Z,44.18
2017-08-02T13:22:50.575Z,44.56
2017-08-02T13:25:18.024Z,43.82
2017-08-02T13:27:45.490Z,44.34
2017-08-02T13:30:12.960Z,42.83
2017-08-02T13:32:40.434Z,43.03
2017-08-02T13:35:07.969Z,42.45
2017-08-02T13:37:35.536Z,44.37
2017-08-02T13:40:02.975Z,43.62
2017-08-02T13:42:30.446Z,44.38
2017-08-02T13:44:57.898Z,44.71
2017-08-02T13:47:25.379Z,45.37
2017-08-02T13:49:52.906Z,44.19
2017-08-02T13:52:20.375Z,43.97
2017-08-02T13:54:47.846Z,44.71
2017-08-02T13:57:15.351Z,46.07
2017-08-02T13:59:42.818Z,44.47
2017-08-02T14:02:10.303Z,43.67
2017-08-02T14:04:38.685Z,44.90
2017-08-02T14:07:06.239Z,45.07
2017-08-02T14:09:33.794Z,44.37
2017-08-02T14:12:01.239Z,44.01
2017-08-02T14:14:28.735Z,45.67
2017-08-02T14:16:56.184Z,44.11
2017-08-02T14:19:23.721Z,44.01
2017-08-02T14:21:52.421Z,44.04
2017-08-02T14:24:19.904Z,44.16
2017-08-02T14:26:47.438Z,42.42
2017-08-02T14:29:14.891Z,42.90
2017-08-02T14:31:42.350Z,43.96
2017-08-02T14:34:09.918Z,42.68
2017-08-02T14:36:37.472Z,43.47
2017-08-02T14:39:04.917Z,42.57
2017-08-02T14:41:32.465Z,42.86
2017-08-02T14:43:59.932Z,43.31
2017-08-02T14:46:27.482Z,44.80
2017-08-02T14:48:54.938Z,43.69
2017-08-02T14:51:22.404Z,45.65
2017-08-02T14:53:49.850Z,44.53
2017-08-02T14:56:17.432Z,42.81
2017-08-02T14:58:44.915Z,42.45
2017-08-02T15:01:12.403Z,44.24
2017-08-02T15:03:39.944Z,42.56
2017-08-02T15:06:07.415Z,42.49
2017-08-02T15:08:34.867Z,42.48
2017-08-02T15:11:02.392Z,42.08
2017-08-02T15:13:29.922Z,41.83
2017-08-02T15:15:57.357Z,42.05
2017-08-02T15:18:26.130Z,42.13
2017-08-02T15:20:53.663Z,42.63
2017-08-02T15:23:21.181Z,42.42
2017-08-02T15:25:48.636Z,41.86
2017-08-02T15:28:16.103Z,41.78
2017-08-02T15:30:43.664Z,43.11
2017-08-02T15:33:11.284Z,43.05
2017-08-02T15:35:39.027Z,42.42
2017-08-02T15:38:06.676Z,42.76
2017-08-02T15:40:34.191Z,42.82
2017-08-02T15:43:01.910Z,42.48
2017-08-02T15:45:29.529Z,41.84
2017-08-02T15:47:57.173Z,43.05
2017-08-02T15:50:24.877Z,42.99
2017-08-02T15:52:52.453Z,44.03
2017-08-02T15:55:19.947Z,44.23
2017-08-02T15:57:47.551Z,45.76
2017-08-02T16:00:15.109Z,44.41
2017-08-02T16:02:42.554Z,44.11
2017-08-02T16:05:10.090Z,43.84
2017-08-02T16:07:37.545Z,44.42
2017-08-02T16:10:05.023Z,44.59
2017-08-02T16:12:32.560Z,46.14
2017-08-02T16:15:01.715Z,45.51
2017-08-02T16:17:29.187Z,43.74
2017-08-02T16:19:56.671Z,44.78
2017-08-02T16:22:24.223Z,44.26
2017-08-02T16:24:51.685Z,44.03
2017-08-02T16:27:19.598Z,44.96
2017-08-02T16:29:47.097Z,44.64
2017-08-02T16:32:14.564Z,47.22
2017-08-02T16:34:42.076Z,47.48
2017-08-02T16:37:09.538Z,46.29
2017-08-02T16:39:37.030Z,49.42
2017-08-02T16:42:04.546Z,51.47
2017-08-02T16:44:31.986Z,51.16
2017-08-02T16:46:59.518Z,51.29
2017-08-02T16:49:27.090Z,52.61
2017-08-02T16:51:54.538Z,54.49
2017-08-02T16:54:22.080Z,55.35
2017-08-02T16:56:49.555Z,56.00
2017-08-02T16:59:17.098Z,57.68
2017-08-02T17:01:44.549Z,57.57
2017-08-02T17:04:12.020Z,56.50
2017-08-02T17:06:39.640Z,57.41
2017-08-02T17:09:07.129Z,58.74
2017-08-02T17:11:34.688Z,58.57
2017-08-02T17:14:02.246Z,57.91
2017-08-02T17:16:29.703Z,57.86
2017-08-02T17:18:57.257Z,57.90
2017-08-02T17:21:24.810Z,58.61
2017-08-02T17:23:52.294Z,58.37
2017-08-02T17:26:19.784Z,56.18
2017-08-02T17:28:47.697Z,57.45
2017-08-02T17:31:15.159Z,59.72
2017-08-02T17:33:42.606Z,60.62
2017-08-02T17:36:10.179Z,60.11
2017-08-02T17:38:37.621Z,58.37
2017-08-02T17:41:05.137Z,58.35
2017-08-02T17:43:32.578Z,59.03
2017-08-02T17:46:00.103Z,59.08
2017-08-02T17:48:27.543Z,59.10
2017-08-02T17:50:54.987Z,60.00
2017-08-02T17:53:22.451Z,60.06
2017-08-02T17:55:49.956Z,60.28
2017-08-02T17:58:17.489Z,60.40
2017-08-02T18:00:44.962Z,61.36
2017-08-02T18:03:12.428Z,61.08
2017-08-02T18:05:39.946Z,59.49
2017-08-02T18:08:07.523Z,58.69
2017-08-02T18:10:34.973Z,57.68
2017-08-02T18:13:02.523Z,57.45
2017-08-02T18:15:29.996Z,58.62
2017-08-02T18:17:57.555Z,58.27
2017-08-02T18:20:25.104Z,59.02
2017-08-02T18:22:52.659Z,61.16
2017-08-02T18:25:20.140Z,60.67
2017-08-02T18:27:47.608Z,62.08
2017-08-02T18:30:15.083Z,62.27
2017-08-02T18:32:42.530Z,61.96
2017-08-02T18:35:10.043Z,61.51
2017-08-02T18:37:37.487Z,60.28
2017-08-02T18:40:05.056Z,61.30
2017-08-02T18:42:32.498Z,61.20
2017-08-02T18:45:00.011Z,60.23
2017-08-02T18:47:27.527Z,60.62
2017-08-02T18:49:55.006Z,59.95
2017-08-02T18:52:22.447Z,60.49
2017-08-02T18:54:50.002Z,61.01
2017-08-02T18:57:17.559Z,61.80
2017-08-02T18:59:45.074Z,61.88
2017-08-02T19:02:12.537Z,61.61
2017-08-02T19:04:39.974Z,61.80
2017-08-02T19:07:07.441Z,62.01
2017-08-02T19:09:34.969Z,62.13
2017-08-02T19:12:02.470Z,63.02
2017-08-02T19:14:29.974Z,63.98
2017-08-02T19:16:57.515Z,63.42
2017-08-02T19:19:24.960Z,64.14
2017-08-02T19:21:52.537Z,64.10
2017-08-02T19:24:20.047Z,63.65
2017-08-02T19:26:47.547Z,62.62
2017-08-02T19:29:14.991Z,63.00
2017-08-02T19:31:42.463Z,64.19
2017-08-02T19:34:10.024Z,64.13
2017-08-02T19:36:37.462Z,63.97
2017-08-02T19:39:05.039Z,64.22
2017-08-02T19:41:32.489Z,63.78
2017-08-02T19:44:00.043Z,63.46
2017-08-02T19:46:27.491Z,63.94
2017-08-02T19:48:54.954Z,63.44
2017-08-02T19:51:22.402Z,62.42
2017-08-02T19:53:49.876Z,62.86
2017-08-02T19:56:17.323Z,63.01
2017-08-02T19:58:44.794Z,64.56
2017-08-02T20:01:12.330Z,64.51
2017-08-02T20:03:39.910Z,64.76
2017-08-02T20:06:07.363Z,67.27
2017-08-02T20:08:34.825Z,67.21
2017-08-02T20:11:02.294Z,67.76
2017-08-02T20:13:29.829Z,67.64
2017-08-02T20:15:57.412Z,67.00
2017-08-02T20:18:24.962Z,66.52
2017-08-02T20:20:52.506Z,67.34
2017-08-02T20:23:19.962Z,67.33
2017-08-02T20:25:47.524Z,67.38
2017-08-02T20:28:15.002Z,67.69
2017-08-02T20:30:42.948Z,67.72
2017-08-02T20:33:10.392Z,68.32
2017-08-02T20:35:37.862Z,69.30
2017-08-02T20:38:05.416Z,69.67
2017-08-02T20:40:32.870Z,70.30
2017-08-02T20:43:00.335Z,70.45
2017-08-02T20:45:27.791Z,71.40
2017-08-02T20:47:55.304Z,72.48
2017-08-02T20:50:22.806Z,72.78
2017-08-02T20:52:50.254Z,73.31
2017-08-02T20:55:17.698Z,74.26
2017-08-02T20:57:45.175Z,74.46
2017-08-02T21:00:12.625Z,74.95
2017-08-02T21:02:40.186Z,75.00
2017-08-02T21:05:07.628Z,75.44
2017-08-02T21:07:35.204Z,75.30
2017-08-02T21:10:02.647Z,75.08
2017-08-02T21:12:30.108Z,74.59
2017-08-02T21:14:57.626Z,74.65
2017-08-02T21:17:25.093Z,74.34
2017-08-02T21:19:52.534Z,74.04
2017-08-02T21:22:19.995Z,75.42
2017-08-02T21:24:47.435Z,75.31
2017-08-02T21:27:14.876Z,74.86
2017-08-02T21:29:42.780Z,72.63
2017-08-02T21:32:10.280Z,75.41
2017-08-02T21:34:37.898Z,76.50
2017-08-02T21:37:05.362Z,76.53
2017-08-02T21:39:32.831Z,76.70
2017-08-02T21:42:00.465Z,76.48
2017-08-02T21:44:27.978Z,76.11
2017-08-02T21:46:55.486Z,76.09
2017-08-02T21:49:22.956Z,76.18
2017-08-02T21:51:50.448Z,76.47
2017-08-02T21:54:17.914Z,75.24
2017-08-02T21:56:45.459Z,77.16
2017-08-02T21:59:12.910Z,77.05
2017-08-02T22:01:40.350Z,77.93
2017-08-02T22:04:07.833Z,79.38
2017-08-02T22:06:35.402Z,78.15
2017-08-02T22:09:02.874Z,77.86
2017-08-02T22:11:30.349Z,77.48
2017-08-02T22:13:58.616Z,77.39
2017-08-02T22:16:26.102Z,79.33
2017-08-02T22:18:53.716Z,79.83
2017-08-02T22:21:21.246Z,79.23
2017-08-02T22:23:48.741Z,78.10
2017-08-02T22:26:16.290Z,78.18
2017-08-02T22:28:43.738Z,78.30
2017-08-02T22:31:14.854Z,78.42
2017-08-02T22:33:42.297Z,79.22
2017-08-02T22:36:09.753Z,79.05
2017-08-02T22:38:37.198Z,79.67
2017-08-02T22:41:04.692Z,79.58
2017-08-02T22:43:32.135Z,78.68
2017-08-02T22:45:59.604Z,77.93
2017-08-02T22:48:27.046Z,78.87
2017-08-02T22:50:54.655Z,79.75
2017-08-02T22:53:22.169Z,79.71
2017-08-02T22:55:49.737Z,79.85
2017-08-02T22:58:17.183Z,79.76
2017-08-02T23:00:44.638Z,79.00
2017-08-02T23:03:12.213Z,78.60
2017-08-02T23:05:39.646Z,78.48
2017-08-02T23:08:07.118Z,77.64
2017-08-02T23:10:34.558Z,78.21
2017-08-02T23:13:02.026Z,79.42
2017-08-02T23:15:29.471Z,79.71
2017-08-02T23:17:56.975Z,78.60
2017-08-02T23:20:24.498Z,78.88
2017-08-02T23:22:51.979Z,78.64
2017-08-02T23:25:19.418Z,78.46
2017-08-02T23:27:46.982Z,78.98
2017-08-02T23:30:14.417Z,79.28
2017-08-02T23:32:42.115Z,79.73
2017-08-02T23:35:09.658Z,80.38
2017-08-02T23:37:37.140Z,80.32
2017-08-02T23:40:04.673Z,80.58
2017-08-02T23:42:32.110Z,80.42
2017-08-02T23:44:59.574Z,80.43
2017-08-02T23:47:27.038Z,79.96
2017-08-02T23:49:54.499Z,79.07
2017-08-02T23:52:22.049Z,78.85
2017-08-02T23:54:49.606Z,79.84
2017-08-02T23:57:17.133Z,79.98
2017-08-02T23:59:44.596Z,81.27
